sensor_id;sensor_type;location;lat;lon;timestamp;pressure;altitude;pressure_sealevel;temperature;humidity
10474;BME280;5284;50.446;7.904;2023-04-21T00:04:13;98143.97;;;6.21;100.00
10474;BME280;5284;50.446;7.904;2023-04-21T00:09:18;98144.94;;;6.20;100.00
10474;BME280;5284;50.446;7.904;2023-04-21T00:14:23;98145.06;;;6.19;100.00
10474;BME280;5284;50.446;7.904;2023-04-21T00:19:26;98137.84;;;6.21;100.00
10474;BME280;5284;50.446;7.904;2023-04-21T00:24:29;98147.47;;;6.22;100.00
10474;BME280;5284;50.446;7.904;2023-04-21T00:29:33;98139.19;;;6.26;100.00
10474;BME280;5284;50.446;7.904;2023-04-21T00:34:36;98145.19;;;6.28;100.00
10474;BME280;5284;50.446;7.904;2023-04-21T00:39:39;98138.84;;;6.31;100.00
10474;BME280;5284;50.446;7.904;2023-04-21T00:44:43;98134.75;;;6.27;100.00
10474;BME280;5284;50.446;7.904;2023-04-21T00:49:46;98138.03;;;6.30;100.00
10474;BME280;5284;50.446;7.904;2023-04-21T00:54:49;98135.25;;;6.32;100.00
10474;BME280;5284;50.446;7.904;2023-04-21T00:59:54;98126.09;;;6.36;100.00
10474;BME280;5284;50.446;7.904;2023-04-21T01:04:58;98137.44;;;6.38;100.00
10474;BME280;5284;50.446;7.904;2023-04-21T01:10:01;98132.63;;;6.43;100.00
10474;BME280;5284;50.446;7.904;2023-04-21T01:15:07;98137.59;;;6.47;100.00
10474;BME280;5284;50.446;7.904;2023-04-21T01:20:12;98137.69;;;6.46;100.00
10474;BME280;5284;50.446;7.904;2023-04-21T01:25:17;98131.56;;;6.45;100.00
10474;BME280;5284;50.446;7.904;2023-04-21T01:30:22;98142.63;;;6.39;100.00
10474;BME280;5284;50.446;7.904;2023-04-21T01:35:25;98139.25;;;6.37;100.00
10474;BME280;5284;50.446;7.904;2023-04-21T01:40:29;98145.38;;;6.38;100.00
10474;BME280;5284;50.446;7.904;2023-04-21T01:45:35;98147.06;;;6.39;100.00
10474;BME280;5284;50.446;7.904;2023-04-21T01:50:37;98149.59;;;6.40;100.00
10474;BME280;5284;50.446;7.904;2023-04-21T01:55:42;98135.50;;;6.40;100.00
10474;BME280;5284;50.446;7.904;2023-04-21T02:00:44;98139.75;;;6.42;100.00
10474;BME280;5284;50.446;7.904;2023-04-21T02:05:49;98132.28;;;6.47;100.00
10474;BME280;5284;50.446;7.904;2023-04-21T02:10:53;98143.00;;;6.46;100.00
10474;BME280;5284;50.446;7.904;2023-04-21T02:15:56;98138.94;;;6.53;100.00
10474;BME280;5284;50.446;7.904;2023-04-21T02:21:13;98143.63;;;6.49;100.00
10474;BME280;5284;50.446;7.904;2023-04-21T02:26:18;98144.09;;;6.54;100.00
10474;BME280;5284;50.446;7.904;2023-04-21T02:31:21;98144.72;;;6.58;100.00
10474;BME280;5284;50.446;7.904;2023-04-21T02:36:24;98145.31;;;6.61;100.00
10474;BME280;5284;50.446;7.904;2023-04-21T02:41:32;98147.16;;;6.61;100.00
10474;BME280;5284;50.446;7.904;2023-04-21T02:46:38;98148.09;;;6.60;100.00
10474;BME280;5284;50.446;7.904;2023-04-21T02:51:41;98137.38;;;6.61;100.00
10474;BME280;5284;50.446;7.904;2023-04-21T02:56:45;98150.19;;;6.67;100.00
10474;BME280;5284;50.446;7.904;2023-04-21T03:01:48;98153.56;;;6.69;100.00
10474;BME280;5284;50.446;7.904;2023-04-21T03:06:51;98141.03;;;6.71;100.00
10474;BME280;5284;50.446;7.904;2023-04-21T03:11:56;98158.72;;;6.71;100.00
10474;BME280;5284;50.446;7.904;2023-04-21T03:16:59;98152.84;;;6.67;100.00
10474;BME280;5284;50.446;7.904;2023-04-21T03:22:04;98145.84;;;6.66;100.00
10474;BME280;5284;50.446;7.904;2023-04-21T03:27:08;98138.97;;;6.75;100.00
10474;BME280;5284;50.446;7.904;2023-04-21T03:32:11;98137.53;;;6.71;100.00
10474;BME280;5284;50.446;7.904;2023-04-21T03:37:14;98133.69;;;6.75;100.00
10474;BME280;5284;50.446;7.904;2023-04-21T03:42:19;98138.97;;;6.75;100.00
10474;BME280;5284;50.446;7.904;2023-04-21T03:47:23;98144.03;;;6.78;100.00
10474;BME280;5284;50.446;7.904;2023-04-21T03:52:26;98144.19;;;6.76;100.00
10474;BME280;5284;50.446;7.904;2023-04-21T03:57:30;98152.22;;;6.75;100.00
10474;BME280;5284;50.446;7.904;2023-04-21T04:02:33;98141.53;;;6.76;100.00
10474;BME280;5284;50.446;7.904;2023-04-21T04:07:36;98143.47;;;6.74;100.00
10474;BME280;5284;50.446;7.904;2023-04-21T04:12:40;98134.06;;;6.70;100.00
10474;BME280;5284;50.446;7.904;2023-04-21T04:17:43;98135.94;;;6.57;100.00
10474;BME280;5284;50.446;7.904;2023-04-21T04:22:46;98134.16;;;6.69;100.00
10474;BME280;5284;50.446;7.904;2023-04-21T04:27:50;98143.06;;;6.68;100.00
10474;BME280;5284;50.446;7.904;2023-04-21T04:32:54;98142.84;;;6.71;100.00
10474;BME280;5284;50.446;7.904;2023-04-21T04:37:58;98133.91;;;6.72;100.00
10474;BME280;5284;50.446;7.904;2023-04-21T04:43:02;98135.13;;;6.79;100.00
10474;BME280;5284;50.446;7.904;2023-04-21T04:48:05;98132.97;;;6.73;100.00
10474;BME280;5284;50.446;7.904;2023-04-21T04:53:09;98133.69;;;6.75;100.00
10474;BME280;5284;50.446;7.904;2023-04-21T04:58:14;98132.38;;;6.80;100.00
10474;BME280;5284;50.446;7.904;2023-04-21T05:03:17;98139.38;;;6.81;100.00
10474;BME280;5284;50.446;7.904;2023-04-21T05:08:20;98126.75;;;6.85;100.00
10474;BME280;5284;50.446;7.904;2023-04-21T05:13:25;98133.50;;;6.89;100.00
10474;BME280;5284;50.446;7.904;2023-04-21T05:18:28;98143.72;;;6.93;100.00
10474;BME280;5284;50.446;7.904;2023-04-21T05:23:31;98154.56;;;6.90;100.00
10474;BME280;5284;50.446;7.904;2023-04-21T05:28:35;98155.56;;;7.00;100.00
10474;BME280;5284;50.446;7.904;2023-04-21T05:33:40;98151.56;;;6.95;100.00
10474;BME280;5284;50.446;7.904;2023-04-21T05:38:43;98156.25;;;6.91;100.00
10474;BME280;5284;50.446;7.904;2023-04-21T05:43:48;98145.94;;;6.99;100.00
10474;BME280;5284;50.446;7.904;2023-04-21T05:48:51;98160.25;;;6.97;100.00
10474;BME280;5284;50.446;7.904;2023-04-21T05:53:54;98160.13;;;6.98;100.00
10474;BME280;5284;50.446;7.904;2023-04-21T05:59:01;98153.75;;;7.01;100.00
10474;BME280;5284;50.446;7.904;2023-04-21T06:04:04;98149.41;;;7.11;100.00
10474;BME280;5284;50.446;7.904;2023-04-21T06:09:08;98140.16;;;7.16;100.00
10474;BME280;5284;50.446;7.904;2023-04-21T06:14:13;98143.03;;;7.13;100.00
10474;BME280;5284;50.446;7.904;2023-04-21T06:19:16;98137.97;;;7.21;100.00
10474;BME280;5284;50.446;7.904;2023-04-21T06:24:19;98142.44;;;7.21;100.00
10474;BME280;5284;50.446;7.904;2023-04-21T06:29:27;98139.06;;;7.41;100.00
10474;BME280;5284;50.446;7.904;2023-04-21T06:34:30;98137.59;;;7.47;100.00
10474;BME280;5284;50.446;7.904;2023-04-21T06:39:34;98141.72;;;7.52;100.00
10474;BME280;5284;50.446;7.904;2023-04-21T06:44:39;98148.97;;;7.50;100.00
10474;BME280;5284;50.446;7.904;2023-04-21T06:49:42;98136.41;;;7.62;100.00
10474;BME280;5284;50.446;7.904;2023-04-21T06:54:44;98136.75;;;7.80;100.00
10474;BME280;5284;50.446;7.904;2023-04-21T06:59:50;98140.47;;;7.77;100.00
10474;BME280;5284;50.446;7.904;2023-04-21T07:04:55;98139.50;;;7.78;100.00
10474;BME280;5284;50.446;7.904;2023-04-21T07:09:59;98149.53;;;7.86;100.00
10474;BME280;5284;50.446;7.904;2023-04-21T07:15:04;98143.34;;;8.18;100.00
10474;BME280;5284;50.446;7.904;2023-04-21T07:20:09;98139.56;;;8.10;100.00
10474;BME280;5284;50.446;7.904;2023-04-21T07:25:12;98144.59;;;8.35;100.00
10474;BME280;5284;50.446;7.904;2023-04-21T07:30:17;98143.19;;;8.20;100.00
10474;BME280;5284;50.446;7.904;2023-04-21T07:35:19;98146.91;;;8.28;100.00
10474;BME280;5284;50.446;7.904;2023-04-21T07:40:24;98147.88;;;8.16;100.00
10474;BME280;5284;50.446;7.904;2023-04-21T07:45:28;98147.38;;;8.33;100.00
10474;BME280;5284;50.446;7.904;2023-04-21T07:50:31;98160.97;;;8.19;100.00
10474;BME280;5284;50.446;7.904;2023-04-21T07:55:34;98153.81;;;8.20;100.00
10474;BME280;5284;50.446;7.904;2023-04-21T08:00:39;98155.28;;;8.44;100.00
10474;BME280;5284;50.446;7.904;2023-04-21T08:05:43;98150.34;;;8.92;100.00
10474;BME280;5284;50.446;7.904;2023-04-21T08:10:46;98152.47;;;9.18;100.00
10474;BME280;5284;50.446;7.904;2023-04-21T08:15:52;98146.72;;;9.43;100.00
10474;BME280;5284;50.446;7.904;2023-04-21T08:20:56;98147.81;;;9.31;100.00
10474;BME280;5284;50.446;7.904;2023-04-21T08:26:01;98145.91;;;9.42;100.00
10474;BME280;5284;50.446;7.904;2023-04-21T08:31:08;98153.84;;;9.63;100.00
10474;BME280;5284;50.446;7.904;2023-04-21T08:36:12;98152.63;;;9.76;100.00
10474;BME280;5284;50.446;7.904;2023-04-21T08:41:16;98145.63;;;10.24;100.00
10474;BME280;5284;50.446;7.904;2023-04-21T08:46:23;98125.44;;;10.78;100.00
10474;BME280;5284;50.446;7.904;2023-04-21T08:51:27;98126.25;;;10.88;100.00
10474;BME280;5284;50.446;7.904;2023-04-21T08:56:32;98132.56;;;11.52;100.00
10474;BME280;5284;50.446;7.904;2023-04-21T09:02:06;98137.53;;;11.38;100.00
10474;BME280;5284;50.446;7.904;2023-04-21T09:07:29;98135.75;;;11.75;100.00
10474;BME280;5284;50.446;7.904;2023-04-21T09:12:32;98131.69;;;11.15;100.00
10474;BME280;5284;50.446;7.904;2023-04-21T09:17:37;98133.06;;;11.29;100.00
10474;BME280;5284;50.446;7.904;2023-04-21T09:22:40;98126.91;;;11.28;100.00
10474;BME280;5284;50.446;7.904;2023-04-21T09:27:43;98125.41;;;12.33;100.00
10474;BME280;5284;50.446;7.904;2023-04-21T09:32:48;98126.19;;;12.78;100.00
10474;BME280;5284;50.446;7.904;2023-04-21T09:37:51;98115.19;;;12.81;100.00
10474;BME280;5284;50.446;7.904;2023-04-21T09:42:56;98131.25;;;12.02;100.00
10474;BME280;5284;50.446;7.904;2023-04-21T09:48:02;98133.56;;;12.15;100.00
10474;BME280;5284;50.446;7.904;2023-04-21T09:53:14;98118.00;;;12.62;100.00
10474;BME280;5284;50.446;7.904;2023-04-21T09:58:18;98111.28;;;12.41;100.00
10474;BME280;5284;50.446;7.904;2023-04-21T10:03:26;98106.53;;;12.52;100.00
10474;BME280;5284;50.446;7.904;2023-04-21T10:08:29;98104.94;;;13.78;100.00
10474;BME280;5284;50.446;7.904;2023-04-21T10:13:32;98094.78;;;13.90;100.00
10474;BME280;5284;50.446;7.904;2023-04-21T10:18:42;98086.19;;;14.20;100.00
10474;BME280;5284;50.446;7.904;2023-04-21T10:23:47;98089.28;;;14.65;100.00
10474;BME280;5284;50.446;7.904;2023-04-21T10:28:52;98079.22;;;14.51;100.00
10474;BME280;5284;50.446;7.904;2023-04-21T10:34:14;98085.06;;;14.94;100.00
10474;BME280;5284;50.446;7.904;2023-04-21T10:39:25;98072.28;;;15.44;100.00
10474;BME280;5284;50.446;7.904;2023-04-21T10:44:29;98077.34;;;15.39;100.00
10474;BME280;5284;50.446;7.904;2023-04-21T10:49:37;98083.91;;;15.29;100.00
10474;BME280;5284;50.446;7.904;2023-04-21T10:54:42;98071.66;;;15.34;100.00
10474;BME280;5284;50.446;7.904;2023-04-21T10:59:47;98059.88;;;15.35;100.00
10474;BME280;5284;50.446;7.904;2023-04-21T11:04:53;98064.53;;;16.34;100.00
10474;BME280;5284;50.446;7.904;2023-04-21T11:09:59;98056.88;;;15.76;100.00
10474;BME280;5284;50.446;7.904;2023-04-21T11:15:06;98056.09;;;16.37;99.92
10474;BME280;5284;50.446;7.904;2023-04-21T11:20:12;98038.91;;;16.07;100.00
10474;BME280;5284;50.446;7.904;2023-04-21T11:25:17;98046.53;;;16.26;100.00
10474;BME280;5284;50.446;7.904;2023-04-21T11:30:20;98044.91;;;15.87;100.00
10474;BME280;5284;50.446;7.904;2023-04-21T11:35:26;98031.97;;;16.43;100.00
10474;BME280;5284;50.446;7.904;2023-04-21T11:40:30;98011.06;;;18.06;94.87
10474;BME280;5284;50.446;7.904;2023-04-21T11:45:48;98011.13;;;17.62;86.80
10474;BME280;5284;50.446;7.904;2023-04-21T11:50:54;98009.91;;;17.21;88.30
10474;BME280;5284;50.446;7.904;2023-04-21T11:55:58;98008.38;;;16.23;91.10
10474;BME280;5284;50.446;7.904;2023-04-21T12:01:06;98016.44;;;15.62;99.20
10474;BME280;5284;50.446;7.904;2023-04-21T12:06:19;98024.34;;;15.94;94.50
10474;BME280;5284;50.446;7.904;2023-04-21T12:11:24;98016.72;;;16.05;95.24
10474;BME280;5284;50.446;7.904;2023-04-21T12:16:28;97998.09;;;16.04;91.30
10474;BME280;5284;50.446;7.904;2023-04-21T12:21:35;97999.69;;;16.13;88.60
10474;BME280;5284;50.446;7.904;2023-04-21T12:26:42;97995.69;;;16.76;85.73
10474;BME280;5284;50.446;7.904;2023-04-21T12:31:44;97998.19;;;18.57;72.38
10474;BME280;5284;50.446;7.904;2023-04-21T12:36:49;97981.47;;;17.62;71.36
10474;BME280;5284;50.446;7.904;2023-04-21T12:41:52;97983.28;;;18.68;71.00
10474;BME280;5284;50.446;7.904;2023-04-21T12:46:56;97980.28;;;19.73;67.83
10474;BME280;5284;50.446;7.904;2023-04-21T12:52:03;97970.34;;;19.80;63.52
10474;BME280;5284;50.446;7.904;2023-04-21T12:57:09;97962.25;;;19.86;61.16
10474;BME280;5284;50.446;7.904;2023-04-21T13:02:12;97963.72;;;20.48;59.28
10474;BME280;5284;50.446;7.904;2023-04-21T13:07:16;97961.97;;;18.17;67.08
10474;BME280;5284;50.446;7.904;2023-04-21T13:12:24;97964.72;;;19.13;66.05
10474;BME280;5284;50.446;7.904;2023-04-21T13:17:27;97963.22;;;19.72;62.87
10474;BME280;5284;50.446;7.904;2023-04-21T13:22:32;97955.47;;;17.90;68.14
10474;BME280;5284;50.446;7.904;2023-04-21T13:27:36;97956.63;;;16.94;76.82
10474;BME280;5284;50.446;7.904;2023-04-21T13:32:41;97947.44;;;18.53;70.91
10474;BME280;5284;50.446;7.904;2023-04-21T13:37:46;97944.69;;;19.29;66.27
10474;BME280;5284;50.446;7.904;2023-04-21T13:42:49;97926.69;;;19.15;65.81
10474;BME280;5284;50.446;7.904;2023-04-21T13:47:53;97925.84;;;19.14;63.42
10474;BME280;5284;50.446;7.904;2023-04-21T13:52:57;97906.56;;;19.58;63.08
10474;BME280;5284;50.446;7.904;2023-04-21T13:58:00;97900.13;;;20.44;60.27
10474;BME280;5284;50.446;7.904;2023-04-21T14:03:03;97897.41;;;22.47;54.05
10474;BME280;5284;50.446;7.904;2023-04-21T14:08:08;97886.53;;;23.21;49.94
10474;BME280;5284;50.446;7.904;2023-04-21T14:13:12;97881.03;;;23.45;50.41
10474;BME280;5284;50.446;7.904;2023-04-21T14:18:34;97868.31;;;24.04;51.97
10474;BME280;5284;50.446;7.904;2023-04-21T14:23:40;97867.75;;;26.09;45.83
10474;BME280;5284;50.446;7.904;2023-04-21T14:28:43;97856.78;;;21.53;52.40
10474;BME280;5284;50.446;7.904;2023-04-21T14:33:46;97853.59;;;23.04;49.47
10474;BME280;5284;50.446;7.904;2023-04-21T14:38:52;97861.50;;;22.88;50.82
10474;BME280;5284;50.446;7.904;2023-04-21T14:43:56;97844.25;;;20.05;55.75
10474;BME280;5284;50.446;7.904;2023-04-21T14:49:01;97843.72;;;21.24;52.53
10474;BME280;5284;50.446;7.904;2023-04-21T14:54:05;97844.88;;;20.58;54.71
10474;BME280;5284;50.446;7.904;2023-04-21T14:59:08;97833.75;;;25.37;44.55
10474;BME280;5284;50.446;7.904;2023-04-21T15:04:12;97832.47;;;26.68;44.79
10474;BME280;5284;50.446;7.904;2023-04-21T15:09:17;97824.63;;;28.69;39.87
10474;BME280;5284;50.446;7.904;2023-04-21T15:14:22;97821.03;;;26.55;43.04
10474;BME280;5284;50.446;7.904;2023-04-21T15:19:24;97816.59;;;33.07;37.26
10474;BME280;5284;50.446;7.904;2023-04-21T15:24:29;97811.00;;;32.45;34.96
10474;BME280;5284;50.446;7.904;2023-04-21T15:29:33;97812.94;;;33.63;34.09
10474;BME280;5284;50.446;7.904;2023-04-21T15:34:37;97803.28;;;30.85;35.43
10474;BME280;5284;50.446;7.904;2023-04-21T15:39:41;97792.16;;;31.40;35.64
10474;BME280;5284;50.446;7.904;2023-04-21T15:44:44;97786.38;;;32.05;34.61
10474;BME280;5284;50.446;7.904;2023-04-21T15:49:48;97780.13;;;31.11;35.48
10474;BME280;5284;50.446;7.904;2023-04-21T15:54:53;97780.53;;;32.11;34.52
10474;BME280;5284;50.446;7.904;2023-04-21T15:59:56;97771.53;;;31.23;36.18
10474;BME280;5284;50.446;7.904;2023-04-21T16:04:59;97766.41;;;29.50;37.62
10474;BME280;5284;50.446;7.904;2023-04-21T16:10:04;97756.44;;;30.85;35.10
10474;BME280;5284;50.446;7.904;2023-04-21T16:15:07;97745.72;;;32.87;33.40
10474;BME280;5284;50.446;7.904;2023-04-21T16:20:17;97746.47;;;34.28;32.54
10474;BME280;5284;50.446;7.904;2023-04-21T16:25:22;97741.03;;;33.39;32.67
10474;BME280;5284;50.446;7.904;2023-04-21T16:30:26;97735.25;;;36.67;29.91
10474;BME280;5284;50.446;7.904;2023-04-21T16:35:29;97720.09;;;30.73;34.15
10474;BME280;5284;50.446;7.904;2023-04-21T16:40:33;97727.38;;;31.91;32.89
10474;BME280;5284;50.446;7.904;2023-04-21T16:45:36;97733.34;;;33.97;31.24
10474;BME280;5284;50.446;7.904;2023-04-21T16:50:40;97711.81;;;30.78;33.46
10474;BME280;5284;50.446;7.904;2023-04-21T16:55:44;97718.44;;;30.52;34.48
10474;BME280;5284;50.446;7.904;2023-04-21T17:00:47;97721.94;;;31.08;33.94
10474;BME280;5284;50.446;7.904;2023-04-21T17:05:51;97713.91;;;31.31;33.51
10474;BME280;5284;50.446;7.904;2023-04-21T17:10:55;97718.75;;;31.54;33.57
10474;BME280;5284;50.446;7.904;2023-04-21T17:15:59;97721.88;;;27.98;37.26
10474;BME280;5284;50.446;7.904;2023-04-21T17:21:03;97706.06;;;23.20;44.69
10474;BME280;5284;50.446;7.904;2023-04-21T17:26:08;97714.13;;;21.26;49.26
10474;BME280;5284;50.446;7.904;2023-04-21T17:31:13;97699.69;;;19.41;52.95
10474;BME280;5284;50.446;7.904;2023-04-21T17:36:17;97715.22;;;19.19;54.81
10474;BME280;5284;50.446;7.904;2023-04-21T17:41:22;97721.31;;;18.41;58.01
10474;BME280;5284;50.446;7.904;2023-04-21T17:46:25;97732.13;;;18.13;60.84
10474;BME280;5284;50.446;7.904;2023-04-21T17:51:29;97724.19;;;18.05;63.02
10474;BME280;5284;50.446;7.904;2023-04-21T17:56:33;97729.81;;;17.41;66.19
10474;BME280;5284;50.446;7.904;2023-04-21T18:01:36;97737.31;;;16.89;70.68
10474;BME280;5284;50.446;7.904;2023-04-21T18:06:39;97739.94;;;16.83;69.96
10474;BME280;5284;50.446;7.904;2023-04-21T18:11:43;97734.56;;;16.68;69.99
10474;BME280;5284;50.446;7.904;2023-04-21T18:16:47;97740.22;;;16.59;70.16
10474;BME280;5284;50.446;7.904;2023-04-21T18:21:50;97761.06;;;16.36;71.43
10474;BME280;5284;50.446;7.904;2023-04-21T18:26:54;97859.50;;;15.02;73.79
10474;BME280;5284;50.446;7.904;2023-04-21T18:31:58;97836.88;;;13.31;100.00
10474;BME280;5284;50.446;7.904;2023-04-21T18:37:01;97852.09;;;12.22;100.00
10474;BME280;5284;50.446;7.904;2023-04-21T18:42:07;97817.72;;;12.27;100.00
10474;BME280;5284;50.446;7.904;2023-04-21T18:47:11;97751.41;;;11.97;100.00
10474;BME280;5284;50.446;7.904;2023-04-21T18:52:15;97725.09;;;11.59;100.00
10474;BME280;5284;50.446;7.904;2023-04-21T18:57:20;97724.63;;;11.46;100.00
10474;BME280;5284;50.446;7.904;2023-04-21T19:02:23;97749.16;;;11.42;100.00
10474;BME280;5284;50.446;7.904;2023-04-21T19:07:26;97787.34;;;11.42;100.00
10474;BME280;5284;50.446;7.904;2023-04-21T19:12:30;97802.13;;;11.19;100.00
10474;BME280;5284;50.446;7.904;2023-04-21T19:17:34;97805.03;;;11.08;100.00
10474;BME280;5284;50.446;7.904;2023-04-21T19:22:37;97799.56;;;11.10;100.00
10474;BME280;5284;50.446;7.904;2023-04-21T19:27:42;97784.84;;;11.06;100.00
10474;BME280;5284;50.446;7.904;2023-04-21T19:32:47;97784.00;;;11.05;100.00
10474;BME280;5284;50.446;7.904;2023-04-21T19:37:50;97810.03;;;10.76;100.00
10474;BME280;5284;50.446;7.904;2023-04-21T19:42:54;97788.84;;;10.75;100.00
10474;BME280;5284;50.446;7.904;2023-04-21T19:47:59;97790.19;;;10.62;100.00
10474;BME280;5284;50.446;7.904;2023-04-21T19:53:02;97780.41;;;10.53;100.00
10474;BME280;5284;50.446;7.904;2023-04-21T19:58:06;97785.34;;;10.48;100.00
10474;BME280;5284;50.446;7.904;2023-04-21T20:03:09;97788.59;;;10.42;100.00
10474;BME280;5284;50.446;7.904;2023-04-21T20:08:13;97788.66;;;10.32;100.00
10474;BME280;5284;50.446;7.904;2023-04-21T20:13:18;97786.16;;;10.31;100.00
10474;BME280;5284;50.446;7.904;2023-04-21T20:18:21;97780.72;;;10.23;100.00
10474;BME280;5284;50.446;7.904;2023-04-21T20:23:24;97786.78;;;10.15;100.00
10474;BME280;5284;50.446;7.904;2023-04-21T20:28:29;97782.94;;;9.81;100.00
10474;BME280;5284;50.446;7.904;2023-04-21T20:33:33;97782.38;;;9.78;100.00
10474;BME280;5284;50.446;7.904;2023-04-21T20:38:36;97778.72;;;9.69;100.00
10474;BME280;5284;50.446;7.904;2023-04-21T20:43:40;97778.50;;;9.63;100.00
10474;BME280;5284;50.446;7.904;2023-04-21T20:48:44;97770.63;;;9.61;100.00
10474;BME280;5284;50.446;7.904;2023-04-21T20:53:47;97770.94;;;9.49;100.00
10474;BME280;5284;50.446;7.904;2023-04-21T20:58:51;97771.22;;;9.46;100.00
10474;BME280;5284;50.446;7.904;2023-04-21T21:03:54;97764.09;;;9.37;100.00
10474;BME280;5284;50.446;7.904;2023-04-21T21:08:59;97760.03;;;9.23;100.00
10474;BME280;5284;50.446;7.904;2023-04-21T21:14:03;97763.00;;;9.11;100.00
10474;BME280;5284;50.446;7.904;2023-04-21T21:19:06;97758.50;;;8.93;100.00
10474;BME280;5284;50.446;7.904;2023-04-21T21:24:09;97761.59;;;8.88;100.00
10474;BME280;5284;50.446;7.904;2023-04-21T21:29:14;97755.84;;;8.83;100.00
10474;BME280;5284;50.446;7.904;2023-04-21T21:34:17;97762.00;;;8.84;100.00
10474;BME280;5284;50.446;7.904;2023-04-21T21:39:20;97751.78;;;8.79;100.00
10474;BME280;5284;50.446;7.904;2023-04-21T21:44:24;97759.50;;;8.73;100.00
10474;BME280;5284;50.446;7.904;2023-04-21T21:49:27;97762.69;;;8.67;100.00
10474;BME280;5284;50.446;7.904;2023-04-21T21:54:29;97766.03;;;8.59;100.00
10474;BME280;5284;50.446;7.904;2023-04-21T21:59:34;97759.06;;;8.58;100.00
10474;BME280;5284;50.446;7.904;2023-04-21T22:04:37;97761.28;;;8.53;100.00
10474;BME280;5284;50.446;7.904;2023-04-21T22:09:40;97764.50;;;8.57;100.00
10474;BME280;5284;50.446;7.904;2023-04-21T22:14:44;97760.00;;;8.48;100.00
10474;BME280;5284;50.446;7.904;2023-04-21T22:19:47;97760.41;;;8.43;100.00
10474;BME280;5284;50.446;7.904;2023-04-21T22:24:50;97750.19;;;8.48;100.00
10474;BME280;5284;50.446;7.904;2023-04-21T22:29:54;97766.84;;;8.50;100.00
10474;BME280;5284;50.446;7.904;2023-04-21T22:34:57;97775.00;;;8.58;100.00
10474;BME280;5284;50.446;7.904;2023-04-21T22:40:01;97776.25;;;8.64;100.00
10474;BME280;5284;50.446;7.904;2023-04-21T22:45:07;97778.91;;;8.64;100.00
10474;BME280;5284;50.446;7.904;2023-04-21T22:50:11;97777.41;;;8.71;100.00
10474;BME280;5284;50.446;7.904;2023-04-21T22:55:15;97782.84;;;8.69;100.00
10474;BME280;5284;50.446;7.904;2023-04-21T23:00:19;97787.31;;;8.69;100.00
10474;BME280;5284;50.446;7.904;2023-04-21T23:05:22;97776.94;;;8.66;100.00
10474;BME280;5284;50.446;7.904;2023-04-21T23:10:25;97777.50;;;8.60;100.00
10474;BME280;5284;50.446;7.904;2023-04-21T23:15:31;97781.13;;;8.59;100.00
10474;BME280;5284;50.446;7.904;2023-04-21T23:20:34;97786.59;;;8.57;100.00
10474;BME280;5284;50.446;7.904;2023-04-21T23:25:36;97778.44;;;8.49;100.00
10474;BME280;5284;50.446;7.904;2023-04-21T23:30:42;97776.66;;;8.50;100.00
10474;BME280;5284;50.446;7.904;2023-04-21T23:35:45;97774.97;;;8.49;100.00
10474;BME280;5284;50.446;7.904;2023-04-21T23:40:48;97773.13;;;8.49;100.00
10474;BME280;5284;50.446;7.904;2023-04-21T23:45:52;97772.16;;;8.50;100.00
10474;BME280;5284;50.446;7.904;2023-04-21T23:50:55;97771.72;;;8.45;100.00
10474;BME280;5284;50.446;7.904;2023-04-21T23:55:58;97758.72;;;8.42;100.00
